This is the latest recevied weather packets stored in our database for station/object OSTR-WX. If no packets are shown the sender has not sent any weather packets the latest 10 day(s).
| Time | Temp. | Humidity | Pressure | Rain* | Wind** | Luminosity | Snow |
|---|---|---|---|---|---|---|---|
| 1777739146 | 28.89° C | 34% | 1019.9 hPa | - | - | - | - |
| 1777738189 | 28.89° C | 35% | 1020.1 hPa | - | - | - | - |
| 1777737234 | 28.89° C | 35% | 1020.2 hPa | - | - | - | - |
| 1777736275 | 29.44° C | 30% | 1020.3 hPa | - | - | - | - |
| 1777735318 | 27.78° C | 34% | 1020.7 hPa | - | - | - | - |
| 1777734361 | 27.78° C | 31% | 1020.7 hPa | - | - | - | - |
| 1777733404 | 27.78° C | 34% | 1020.8 hPa | - | - | - | - |
| 1777732453 | 26.67° C | 32% | 1020.9 hPa | - | - | - | - |
| 1777732447 | 26.67° C | 32% | 1020.9 hPa | - | - | - | - |
| 1777731496 | 26.11° C | 32% | 1021.2 hPa | - | - | - | - |
| 1777731490 | 26.11° C | 32% | 1021.2 hPa | - | - | - | - |
| 1777730539 | 25.56° C | 33% | 1021.3 hPa | - | - | - | - |
| 1777730533 | 25.56° C | 33% | 1021.3 hPa | - | - | - | - |
| 1777729576 | 25.56° C | 37% | 1021.4 hPa | - | - | - | - |
| 1777728619 | 26.11° C | 34% | 1021.5 hPa | - | - | - | - |
| 1777727662 | 26.67° C | 32% | 1021.6 hPa | - | - | - | - |
| 1777726705 | 26.11° C | 32% | 1021.9 hPa | - | - | - | - |
| 1777724790 | 24.44° C | 33% | 1022.5 hPa | - | - | - | - |
| 1777723834 | 24.44° C | 37% | 1022.8 hPa | - | - | - | - |
| 1777722879 | 25° C | 36% | 1022.9 hPa | - | - | - | - |
| 1777721927 | 25° C | 36% | 1023.1 hPa | - | - | - | - |
| 1777721920 | 25° C | 36% | 1023.1 hPa | - | - | - | - |
| 1777720962 | 25° C | 38% | 1023.3 hPa | - | - | - | - |
| 1777719055 | 23.89° C | 38% | 1023.7 hPa | - | - | - | - |
| 1777719049 | 23.89° C | 38% | 1023.7 hPa | - | - | - | - |
* Rain since midnight (hover to see other rain measurements)
** Current wind speed in m/s (hover to see current wind gust speed)